Time;durP1;ratioP1;P1;durP2;ratioP2;P2;SDS_P1;SDS_P2;PMS_P1;PMS_P2;Temp;Humidity;BMP_temperature;BMP_pressure;BME280_temperature;BME280_humidity;BME280_pressure;Samples;Min_cycle;Max_cycle;Signal;HPM_P1;HPM_P2
2022/09/21 00:02:05;;;;;;;3.87;3.33;;;;;;;;;;4965268;28;20226;-55
2022/09/21 00:04:31;;;;;;;3.20;2.90;;;;;;;;;;4966665;28;20183;-55
2022/09/21 00:06:58;;;;;;;3.77;3.37;;;;;;;;;;4970128;28;20559;-55
2022/09/21 00:09:25;;;;;;;4.97;3.13;;;;;;;;;;4966726;28;20184;-55
2022/09/21 00:11:53;;;;;;;4.30;3.30;;;;;;;;;;4968257;28;20230;-55
2022/09/21 00:14:19;;;;;;;5.50;3.20;;;;;;;;;;4969792;28;20654;-55
2022/09/21 00:16:45;;;;;;;4.00;3.00;;;;;;;;;;4958595;28;20664;-55
2022/09/21 00:19:11;;;;;;;4.20;3.00;;;;;;;;;;4963866;28;20183;-55
2022/09/21 00:21:37;;;;;;;5.13;3.47;;;;;;;;;;4968235;28;20176;-55
2022/09/21 00:24:04;;;;;;;2.90;2.63;;;;;;;;;;4968865;28;20689;-55
2022/09/21 00:26:34;;;;;;;6.47;3.03;;;;;;;;;;4968795;28;20180;-55
2022/09/21 00:29:01;;;;;;;3.60;3.30;;;;;;;;;;4965107;28;20546;-56
2022/09/21 00:31:28;;;;;;;3.80;3.30;;;;;;;;;;4961542;28;20199;-55
2022/09/21 00:33:59;;;;;;;3.50;3.20;;;;;;;;;;4969460;28;20297;-55
2022/09/21 00:36:26;;;;;;;5.87;3.53;;;;;;;;;;4967685;28;20172;-55
2022/09/21 00:38:53;;;;;;;3.10;2.90;;;;;;;;;;4962430;28;20653;-55
2022/09/21 00:41:19;;;;;;;3.67;3.10;;;;;;;;;;4963610;28;20197;-55
2022/09/21 00:43:48;;;;;;;3.63;3.07;;;;;;;;;;4970105;28;20227;-55
2022/09/21 00:46:24;;;;;;;4.67;3.23;;;;;;;;;;4964787;28;20644;-55
2022/09/21 00:48:50;;;;;;;3.20;2.90;;;;;;;;;;4944942;28;20183;-55
2022/09/21 00:51:17;;;;;;;4.90;2.70;;;;;;;;;;4959415;28;20267;-55
2022/09/21 00:53:43;;;;;;;4.40;3.33;;;;;;;;;;4962904;28;20549;-55
2022/09/21 00:56:09;;;;;;;6.20;3.30;;;;;;;;;;4959133;28;20200;-53
2022/09/21 00:58:43;;;;;;;3.87;3.30;;;;;;;;;;4950122;29;20177;-54
2022/09/21 01:01:10;;;;;;;3.00;2.70;;;;;;;;;;4960198;28;20191;-54
2022/09/21 01:03:36;;;;;;;4.17;3.00;;;;;;;;;;4968966;28;20654;-54
2022/09/21 01:06:02;;;;;;;3.60;2.90;;;;;;;;;;4968162;28;20203;-53
2022/09/21 01:08:29;;;;;;;4.23;2.83;;;;;;;;;;4967904;28;20252;-55
2022/09/21 01:10:55;;;;;;;3.47;2.70;;;;;;;;;;4967807;28;20654;-54
2022/09/21 01:13:44;;;;;;;3.77;2.97;;;;;;;;;;4958767;28;20206;-54
2022/09/21 01:16:24;;;;;;;3.37;3.07;;;;;;;;;;4967168;28;20184;-55
2022/09/21 01:18:56;;;;;;;3.40;3.10;;;;;;;;;;4962308;28;20175;-54
2022/09/21 01:21:25;;;;;;;4.43;2.80;;;;;;;;;;4959561;28;20206;-54
2022/09/21 01:24:10;;;;;;;5.67;3.17;;;;;;;;;;4962706;28;20182;-54
2022/09/21 01:26:45;;;;;;;4.00;3.30;;;;;;;;;;4963353;28;20622;-55
2022/09/21 01:29:20;;;;;;;4.77;3.00;;;;;;;;;;4968472;28;20299;-55
2022/09/21 01:31:50;;;;;;;3.77;3.10;;;;;;;;;;4966203;28;20546;-54
2022/09/21 01:34:41;;;;;;;2.80;2.60;;;;;;;;;;4967098;28;20180;-53
2022/09/21 01:37:09;;;;;;;4.40;3.03;;;;;;;;;;4948268;28;20212;-53
2022/09/21 01:39:35;;;;;;;4.43;2.97;;;;;;;;;;4961424;28;20180;-54
2022/09/21 01:42:02;;;;;;;4.30;3.10;;;;;;;;;;4961568;28;20175;-54
2022/09/21 01:44:32;;;;;;;6.07;3.07;;;;;;;;;;4967070;28;20691;-53
2022/09/21 01:46:59;;;;;;;5.40;3.03;;;;;;;;;;4947873;28;20448;-54
2022/09/21 01:49:29;;;;;;;3.73;2.60;;;;;;;;;;4960860;28;20187;-57
2022/09/21 01:51:58;;;;;;;3.20;2.90;;;;;;;;;;4963332;28;20184;-54
2022/09/21 01:54:28;;;;;;;4.83;2.80;;;;;;;;;;4963150;28;20179;-54
2022/09/21 01:56:58;;;;;;;4.03;2.70;;;;;;;;;;4958130;28;20172;-54
2022/09/21 01:59:31;;;;;;;3.73;2.80;;;;;;;;;;4964912;28;20169;-53
2022/09/21 02:02:03;;;;;;;4.47;3.00;;;;;;;;;;4963640;28;20231;-54
2022/09/21 02:04:29;;;;;;;4.80;3.20;;;;;;;;;;4967687;28;20180;-54
2022/09/21 02:06:55;;;;;;;3.37;3.07;;;;;;;;;;4969112;28;20264;-54
2022/09/21 02:09:23;;;;;;;4.53;2.77;;;;;;;;;;4971335;28;20525;-54
2022/09/21 02:11:49;;;;;;;4.77;3.17;;;;;;;;;;4952770;28;20246;-54
2022/09/21 02:14:17;;;;;;;2.93;2.70;;;;;;;;;;4967795;28;20188;-58
2022/09/21 02:16:43;;;;;;;4.90;3.07;;;;;;;;;;4962741;28;20527;-54
2022/09/21 02:19:11;;;;;;;3.70;3.30;;;;;;;;;;4963940;28;20228;-54
2022/09/21 02:21:43;;;;;;;4.10;3.17;;;;;;;;;;4962698;28;20199;-54
2022/09/21 02:24:25;;;;;;;3.30;3.00;;;;;;;;;;4965614;28;20662;-54
2022/09/21 02:26:57;;;;;;;5.93;3.00;;;;;;;;;;4965363;28;20701;-54
2022/09/21 02:29:23;;;;;;;3.27;2.97;;;;;;;;;;4965428;28;20183;-54
2022/09/21 02:31:55;;;;;;;4.33;3.23;;;;;;;;;;4965273;28;20215;-54
2022/09/21 02:34:59;;;;;;;4.40;2.80;;;;;;;;;;4966934;28;20180;-54
2022/09/21 02:37:36;;;;;;;6.60;3.30;;;;;;;;;;4891866;29;20271;-54
2022/09/21 02:40:03;;;;;;;4.20;2.83;;;;;;;;;;4869632;29;20198;-54
2022/09/21 02:42:34;;;;;;;2.70;2.50;;;;;;;;;;4927760;28;20239;-54
2022/09/21 02:45:09;;;;;;;3.50;2.60;;;;;;;;;;4961268;28;20275;-54
2022/09/21 02:47:48;;;;;;;3.87;2.93;;;;;;;;;;4970275;28;20179;-54
2022/09/21 02:50:17;;;;;;;4.17;3.20;;;;;;;;;;4970042;28;20371;-54
2022/09/21 02:52:44;;;;;;;6.20;3.33;;;;;;;;;;4969448;28;20184;-54
2022/09/21 02:55:11;;;;;;;3.40;2.70;;;;;;;;;;4958642;28;20203;-54
2022/09/21 02:57:37;;;;;;;6.77;2.67;;;;;;;;;;4969770;28;20184;-54
2022/09/21 03:00:04;;;;;;;3.83;2.90;;;;;;;;;;4969202;28;20594;-54
2022/09/21 03:02:41;;;;;;;6.20;2.83;;;;;;;;;;4948319;28;21517;-54
2022/09/21 03:05:08;;;;;;;7.00;3.00;;;;;;;;;;4965348;28;20179;-54
2022/09/21 03:07:34;;;;;;;3.30;2.37;;;;;;;;;;4970332;28;20234;-54
2022/09/21 03:10:00;;;;;;;5.60;2.87;;;;;;;;;;4959934;28;20210;-54
2022/09/21 03:12:26;;;;;;;3.27;2.97;;;;;;;;;;4967714;28;20206;-54
2022/09/21 03:14:53;;;;;;;3.00;2.70;;;;;;;;;;4968545;28;20246;-54
2022/09/21 03:17:19;;;;;;;3.10;2.80;;;;;;;;;;4970580;28;20186;-54
2022/09/21 03:19:45;;;;;;;3.00;2.70;;;;;;;;;;4965163;28;20572;-54
2022/09/21 03:22:11;;;;;;;3.20;2.90;;;;;;;;;;4956432;28;20181;-54
2022/09/21 03:24:46;;;;;;;2.70;2.50;;;;;;;;;;4956412;28;20693;-54
2022/09/21 03:27:13;;;;;;;4.37;2.60;;;;;;;;;;4951773;28;20289;-54
2022/09/21 03:29:40;;;;;;;2.83;2.53;;;;;;;;;;4969341;28;20547;-53
2022/09/21 03:32:06;;;;;;;5.40;4.07;;;;;;;;;;4969903;28;20547;-53
2022/09/21 03:34:33;;;;;;;3.53;2.73;;;;;;;;;;4968196;28;20603;-54
2022/09/21 03:37:06;;;;;;;2.70;2.27;;;;;;;;;;4968414;28;20690;-54
2022/09/21 03:39:32;;;;;;;3.13;2.70;;;;;;;;;;4955588;28;20172;-53
2022/09/21 03:41:59;;;;;;;3.80;2.53;;;;;;;;;;4965952;28;20179;-54
2022/09/21 03:44:25;;;;;;;5.63;3.10;;;;;;;;;;4951058;28;20610;-55
2022/09/21 03:46:52;;;;;;;3.10;2.80;;;;;;;;;;4957528;28;20274;-54
2022/09/21 03:49:19;;;;;;;7.77;3.47;;;;;;;;;;4950110;28;20234;-54
2022/09/21 03:51:45;;;;;;;2.93;2.43;;;;;;;;;;4966638;28;20203;-53
2022/09/21 03:54:12;;;;;;;3.07;2.67;;;;;;;;;;4963989;28;20183;-54
2022/09/21 03:56:38;;;;;;;5.23;2.80;;;;;;;;;;4948550;28;20195;-54
2022/09/21 03:59:05;;;;;;;3.53;2.50;;;;;;;;;;4965645;28;20180;-54
2022/09/21 04:01:31;;;;;;;4.33;2.90;;;;;;;;;;4962698;28;20188;-53
2022/09/21 04:03:58;;;;;;;3.83;2.93;;;;;;;;;;4955290;28;20710;-54
2022/09/21 04:06:24;;;;;;;2.50;2.20;;;;;;;;;;4966140;28;20179;-53
2022/09/21 04:08:52;;;;;;;4.03;3.00;;;;;;;;;;4967576;28;20564;-53
2022/09/21 04:11:21;;;;;;;4.23;3.53;;;;;;;;;;4949766;28;20335;-54
2022/09/21 04:13:56;;;;;;;3.87;2.93;;;;;;;;;;4941396;28;20177;-54
2022/09/21 04:16:24;;;;;;;3.93;2.50;;;;;;;;;;4958882;28;20176;-54
2022/09/21 04:18:50;;;;;;;7.83;3.83;;;;;;;;;;4966308;28;20659;-54
2022/09/21 04:21:20;;;;;;;3.93;3.63;;;;;;;;;;4964434;28;20307;-53
2022/09/21 04:23:53;;;;;;;2.77;2.40;;;;;;;;;;4960805;28;20207;-54
2022/09/21 04:26:21;;;;;;;6.20;3.13;;;;;;;;;;4960627;28;20180;-54
2022/09/21 04:28:48;;;;;;;3.50;3.20;;;;;;;;;;4949243;28;20182;-54
2022/09/21 04:31:14;;;;;;;4.23;2.93;;;;;;;;;;4965526;28;20227;-53
2022/09/21 04:33:40;;;;;;;4.40;2.90;;;;;;;;;;4968215;28;20195;-54
2022/09/21 04:36:06;;;;;;;5.30;2.63;;;;;;;;;;4963235;28;20266;-54
2022/09/21 04:38:32;;;;;;;4.23;3.07;;;;;;;;;;4960419;28;20215;-54
2022/09/21 04:40:59;;;;;;;2.67;2.43;;;;;;;;;;4962945;28;20591;-54
2022/09/21 04:43:25;;;;;;;3.07;2.40;;;;;;;;;;4962268;28;20224;-53
2022/09/21 04:45:52;;;;;;;3.00;2.73;;;;;;;;;;4959674;28;20643;-54
2022/09/21 04:48:18;;;;;;;2.90;2.50;;;;;;;;;;4963381;28;20184;-54
2022/09/21 04:50:48;;;;;;;4.03;2.70;;;;;;;;;;4958535;28;20220;-54
2022/09/21 04:53:14;;;;;;;3.23;2.90;;;;;;;;;;4958926;28;20263;-54
2022/09/21 04:55:40;;;;;;;6.87;2.70;;;;;;;;;;4940684;28;20183;-57
2022/09/21 04:58:07;;;;;;;8.10;3.33;;;;;;;;;;4964405;28;20311;-54
2022/09/21 05:00:33;;;;;;;3.27;2.80;;;;;;;;;;4950261;28;20196;-54
2022/09/21 05:02:59;;;;;;;12.03;2.83;;;;;;;;;;4966519;28;20798;-54
2022/09/21 05:05:25;;;;;;;4.50;3.17;;;;;;;;;;4961351;28;20177;-54
2022/09/21 05:07:51;;;;;;;3.50;3.20;;;;;;;;;;4962561;28;20183;-54
2022/09/21 05:10:17;;;;;;;3.43;2.70;;;;;;;;;;4966069;28;20199;-54
2022/09/21 05:12:43;;;;;;;4.77;2.97;;;;;;;;;;4969859;28;20676;-54
2022/09/21 05:15:10;;;;;;;4.10;3.17;;;;;;;;;;4948183;28;20183;-54
2022/09/21 05:17:36;;;;;;;4.40;3.23;;;;;;;;;;4967616;28;20593;-54
2022/09/21 05:20:03;;;;;;;3.30;3.00;;;;;;;;;;4961521;28;20278;-54
2022/09/21 05:22:29;;;;;;;4.10;3.00;;;;;;;;;;4968157;28;20187;-54
2022/09/21 05:24:55;;;;;;;4.17;2.80;;;;;;;;;;4965092;28;20180;-54
2022/09/21 05:27:21;;;;;;;5.43;3.30;;;;;;;;;;4976505;28;20709;-53
2022/09/21 05:29:48;;;;;;;6.57;3.10;;;;;;;;;;4952485;28;20188;-53
2022/09/21 05:32:17;;;;;;;6.67;3.20;;;;;;;;;;4967885;28;20583;-53
2022/09/21 05:34:53;;;;;;;7.10;3.50;;;;;;;;;;4965799;28;20213;-53
2022/09/21 05:37:25;;;;;;;8.00;3.33;;;;;;;;;;4941903;28;20203;-53
2022/09/21 05:39:51;;;;;;;4.87;3.57;;;;;;;;;;4954523;28;20176;-53
2022/09/21 05:42:17;;;;;;;4.53;3.50;;;;;;;;;;4965246;28;20176;-53
2022/09/21 05:44:43;;;;;;;4.53;3.37;;;;;;;;;;4969247;28;20307;-54
2022/09/21 05:47:23;;;;;;;4.87;3.13;;;;;;;;;;4967828;28;20200;-53
2022/09/21 05:50:00;;;;;;;5.07;3.67;;;;;;;;;;4966802;28;20179;-53
2022/09/21 05:52:26;;;;;;;6.70;3.93;;;;;;;;;;4950369;28;20175;-53
2022/09/21 05:54:52;;;;;;;9.03;4.00;;;;;;;;;;4968056;28;20751;-53
2022/09/21 05:57:21;;;;;;;3.73;3.27;;;;;;;;;;4968566;28;20188;-53
2022/09/21 05:59:50;;;;;;;4.70;3.63;;;;;;;;;;4941453;28;20191;-53
2022/09/21 06:02:43;;;;;;;8.60;3.60;;;;;;;;;;4962168;28;20238;-53
2022/09/21 06:05:11;;;;;;;9.97;3.63;;;;;;;;;;4935015;28;20210;-53
2022/09/21 06:07:37;;;;;;;8.70;4.03;;;;;;;;;;4967228;28;20191;-54
2022/09/21 06:10:04;;;;;;;6.00;4.00;;;;;;;;;;4944552;29;20634;-53
2022/09/21 06:12:30;;;;;;;5.03;3.43;;;;;;;;;;4954150;28;20267;-53
2022/09/21 06:14:57;;;;;;;6.77;4.00;;;;;;;;;;4968148;28;20262;-53
2022/09/21 06:17:26;;;;;;;3.50;3.20;;;;;;;;;;4967419;28;20682;-53
2022/09/21 06:19:52;;;;;;;4.50;3.13;;;;;;;;;;4949639;28;20548;-53
2022/09/21 06:22:19;;;;;;;5.03;3.60;;;;;;;;;;4950514;28;20565;-53
2022/09/21 06:24:45;;;;;;;4.60;3.40;;;;;;;;;;4966492;28;20180;-53
2022/09/21 06:27:11;;;;;;;4.57;3.93;;;;;;;;;;4950366;28;20183;-53
2022/09/21 06:29:37;;;;;;;3.40;3.07;;;;;;;;;;4967918;28;20217;-54
2022/09/21 06:32:04;;;;;;;5.40;3.53;;;;;;;;;;4967875;28;20199;-53
2022/09/21 06:34:30;;;;;;;4.10;3.27;;;;;;;;;;4966572;28;20211;-53
2022/09/21 06:36:57;;;;;;;5.33;3.47;;;;;;;;;;4956322;28;20204;-53
2022/09/21 06:39:23;;;;;;;6.13;3.00;;;;;;;;;;4947316;28;20196;-53
2022/09/21 06:41:49;;;;;;;4.23;3.17;;;;;;;;;;4946180;28;20188;-53
2022/09/21 06:44:15;;;;;;;4.93;3.60;;;;;;;;;;4967490;28;20234;-53
2022/09/21 06:46:42;;;;;;;3.17;2.87;;;;;;;;;;4966011;28;20203;-53
2022/09/21 06:49:08;;;;;;;3.80;2.90;;;;;;;;;;4945933;28;20751;-53
2022/09/21 06:51:35;;;;;;;4.37;3.57;;;;;;;;;;4951401;29;20656;-53
2022/09/21 06:54:01;;;;;;;5.10;3.80;;;;;;;;;;4953722;28;20260;-53
2022/09/21 06:56:27;;;;;;;5.60;4.17;;;;;;;;;;4969708;28;20609;-53
2022/09/21 06:58:54;;;;;;;7.53;4.57;;;;;;;;;;4968740;28;20180;-53
2022/09/21 07:01:21;;;;;;;9.30;4.57;;;;;;;;;;4946494;28;20223;-53
2022/09/21 07:03:51;;;;;;;7.23;4.33;;;;;;;;;;4959078;28;20173;-53
2022/09/21 07:06:19;;;;;;;10.97;6.77;;;;;;;;;;4936051;28;20181;-53
2022/09/21 07:08:46;;;;;;;13.03;5.43;;;;;;;;;;4950352;28;20273;-53
2022/09/21 07:11:12;;;;;;;8.73;4.80;;;;;;;;;;4969660;28;20578;-53
2022/09/21 07:13:38;;;;;;;5.93;5.23;;;;;;;;;;4971515;28;20274;-54
2022/09/21 07:16:06;;;;;;;7.47;5.20;;;;;;;;;;4965765;28;20276;-53
2022/09/21 07:18:33;;;;;;;7.60;5.63;;;;;;;;;;4952513;28;20180;-53
2022/09/21 07:21:03;;;;;;;12.50;5.90;;;;;;;;;;4958001;28;20207;-53
2022/09/21 07:23:29;;;;;;;9.27;5.63;;;;;;;;;;4970773;28;20239;-53
2022/09/21 07:25:55;;;;;;;7.30;6.07;;;;;;;;;;4961464;28;20191;-53
2022/09/21 07:28:21;;;;;;;9.90;6.33;;;;;;;;;;4937619;28;20184;-54
2022/09/21 07:30:48;;;;;;;11.80;6.10;;;;;;;;;;4966926;28;20299;-53
2022/09/21 07:33:14;;;;;;;7.93;6.17;;;;;;;;;;4960312;28;20571;-53
2022/09/21 07:35:49;;;;;;;8.00;6.57;;;;;;;;;;4957312;28;20277;-53
2022/09/21 07:38:15;;;;;;;10.47;6.47;;;;;;;;;;4944753;28;20553;-53
2022/09/21 07:40:42;;;;;;;8.13;6.67;;;;;;;;;;4949612;28;20262;-53
2022/09/21 07:43:08;;;;;;;7.93;6.60;;;;;;;;;;4938658;28;20266;-53
2022/09/21 07:45:34;;;;;;;18.20;7.40;;;;;;;;;;4965327;28;20408;-53
2022/09/21 07:48:10;;;;;;;10.97;7.03;;;;;;;;;;4945168;28;20184;-54
2022/09/21 07:50:37;;;;;;;9.67;7.00;;;;;;;;;;4960994;28;21530;-53
2022/09/21 07:53:04;;;;;;;11.60;7.30;;;;;;;;;;4960742;28;20179;-53
2022/09/21 07:55:30;;;;;;;14.07;7.10;;;;;;;;;;4943280;28;20514;-53
2022/09/21 08:00:45;;;;;;;9.93;7.97;;;;;;;;;;4942962;28;20278;-53
2022/09/21 08:03:11;;;;;;;8.90;7.27;;;;;;;;;;4966891;28;20187;-54
2022/09/21 08:05:37;;;;;;;11.67;6.73;;;;;;;;;;4956747;28;20195;-54
2022/09/21 08:08:03;;;;;;;10.73;7.03;;;;;;;;;;4956305;28;20180;-54
2022/09/21 08:10:31;;;;;;;6.97;6.27;;;;;;;;;;4942577;28;20212;-54
2022/09/21 08:12:58;;;;;;;13.47;6.47;;;;;;;;;;4937310;28;20180;-53
2022/09/21 08:15:25;;;;;;;12.13;7.70;;;;;;;;;;4965278;28;20230;-54
2022/09/21 08:17:51;;;;;;;10.93;7.03;;;;;;;;;;4963770;28;20176;-54
2022/09/21 08:20:18;;;;;;;10.23;7.27;;;;;;;;;;4959614;28;20175;-54
2022/09/21 08:22:44;;;;;;;8.80;7.63;;;;;;;;;;4949255;28;20211;-54
2022/09/21 08:25:10;;;;;;;9.87;7.23;;;;;;;;;;4965046;28;20207;-53
2022/09/21 08:27:38;;;;;;;11.93;6.93;;;;;;;;;;4967521;28;20244;-54
2022/09/21 08:30:06;;;;;;;11.27;7.13;;;;;;;;;;4966339;28;20203;-53
2022/09/21 08:32:32;;;;;;;10.53;7.17;;;;;;;;;;4966169;28;20638;-55
2022/09/21 08:34:59;;;;;;;14.43;7.33;;;;;;;;;;4963360;28;20748;-54
2022/09/21 08:37:25;;;;;;;10.47;6.77;;;;;;;;;;4938024;28;20304;-54
2022/09/21 08:39:51;;;;;;;10.83;7.10;;;;;;;;;;4954580;28;20211;-54
2022/09/21 08:42:21;;;;;;;8.37;6.03;;;;;;;;;;4948308;28;20183;-54
2022/09/21 08:44:53;;;;;;;10.40;6.40;;;;;;;;;;4963420;28;20671;-54
2022/09/21 08:47:24;;;;;;;9.87;6.50;;;;;;;;;;4961500;28;20215;-54
2022/09/21 08:49:54;;;;;;;10.40;6.47;;;;;;;;;;4942193;28;20183;-54
2022/09/21 08:52:21;;;;;;;8.90;5.73;;;;;;;;;;4964390;28;20577;-54
2022/09/21 08:54:47;;;;;;;11.27;6.23;;;;;;;;;;4967269;28;20262;-54
2022/09/21 08:57:14;;;;;;;11.00;6.17;;;;;;;;;;4934508;29;20235;-54
2022/09/21 08:59:48;;;;;;;10.07;6.00;;;;;;;;;;4956993;28;20715;-54
2022/09/21 09:02:29;;;;;;;5.90;4.93;;;;;;;;;;4960342;28;20190;-54
2022/09/21 09:04:55;;;;;;;11.70;5.57;;;;;;;;;;4940315;28;20240;-54
2022/09/21 09:07:24;;;;;;;9.60;4.70;;;;;;;;;;4957747;28;20187;-54
2022/09/21 09:10:06;;;;;;;7.30;4.20;;;;;;;;;;4946636;28;20216;-54
2022/09/21 09:12:55;;;;;;;5.60;4.30;;;;;;;;;;4960147;28;20189;-54
2022/09/21 09:15:27;;;;;;;9.87;4.47;;;;;;;;;;4927800;28;20193;-53
2022/09/21 09:18:12;;;;;;;7.97;4.07;;;;;;;;;;4954472;28;20184;-54
2022/09/21 09:20:46;;;;;;;9.47;4.13;;;;;;;;;;4960181;28;20744;-54
2022/09/21 09:23:18;;;;;;;4.37;3.60;;;;;;;;;;4958023;28;20271;-54
2022/09/21 09:25:47;;;;;;;9.17;3.97;;;;;;;;;;4961482;28;20195;-54
2022/09/21 09:28:17;;;;;;;4.47;4.03;;;;;;;;;;4964546;28;20212;-53
2022/09/21 09:30:43;;;;;;;6.70;4.10;;;;;;;;;;4968195;28;20329;-54
2022/09/21 09:33:16;;;;;;;8.03;4.40;;;;;;;;;;4958250;28;20246;-54
2022/09/21 09:35:54;;;;;;;8.60;5.43;;;;;;;;;;4957361;28;20188;-54
2022/09/21 09:38:26;;;;;;;5.00;4.30;;;;;;;;;;4939900;28;20207;-54
2022/09/21 09:40:52;;;;;;;4.13;3.73;;;;;;;;;;4944486;28;20199;-54
2022/09/21 09:43:45;;;;;;;6.53;3.30;;;;;;;;;;4963370;28;20629;-54
2022/09/21 09:46:17;;;;;;;4.93;2.90;;;;;;;;;;4960802;28;20207;-54
2022/09/21 09:49:03;;;;;;;6.37;2.43;;;;;;;;;;4967057;28;20505;-54
2022/09/21 09:51:34;;;;;;;3.33;2.77;;;;;;;;;;4965145;28;20219;-54
2022/09/21 09:54:00;;;;;;;3.70;2.30;;;;;;;;;;4953322;28;20179;-54
2022/09/21 09:56:26;;;;;;;13.53;3.10;;;;;;;;;;4963103;28;20258;-54
2022/09/21 09:59:05;;;;;;;4.80;2.83;;;;;;;;;;4961187;28;20188;-54
2022/09/21 10:01:37;;;;;;;3.93;2.57;;;;;;;;;;4957805;28;20195;-54
2022/09/21 10:04:06;;;;;;;4.30;2.70;;;;;;;;;;4966323;28;20193;-54
2022/09/21 10:06:32;;;;;;;4.00;2.33;;;;;;;;;;4951679;28;20189;-54
2022/09/21 10:08:58;;;;;;;4.70;2.60;;;;;;;;;;4960153;28;20678;-54
2022/09/21 10:11:33;;;;;;;3.50;2.20;;;;;;;;;;4963774;28;21012;-54
2022/09/21 10:14:07;;;;;;;2.67;2.20;;;;;;;;;;4965009;28;20226;-54
2022/09/21 10:16:39;;;;;;;5.93;2.43;;;;;;;;;;4961290;28;20232;-55
2022/09/21 10:19:06;;;;;;;4.57;2.07;;;;;;;;;;4964802;28;20180;-54
2022/09/21 10:21:36;;;;;;;4.63;2.43;;;;;;;;;;4944748;28;20184;-55
2022/09/21 10:24:04;;;;;;;4.03;2.33;;;;;;;;;;4962865;28;20188;-54
2022/09/21 10:26:31;;;;;;;3.87;2.10;;;;;;;;;;4964127;28;20558;-54
2022/09/21 10:29:02;;;;;;;4.43;1.93;;;;;;;;;;4962223;28;20177;-54
2022/09/21 10:31:29;;;;;;;3.87;2.10;;;;;;;;;;4963380;28;20633;-54
2022/09/21 10:34:07;;;;;;;2.67;1.87;;;;;;;;;;4947647;28;20203;-55
2022/09/21 10:36:34;;;;;;;4.70;2.00;;;;;;;;;;4940702;28;20671;-55
2022/09/21 10:39:17;;;;;;;3.70;2.17;;;;;;;;;;4958246;28;20179;-55
2022/09/21 10:41:47;;;;;;;1.93;1.77;;;;;;;;;;4965043;28;20249;-54
2022/09/21 10:44:18;;;;;;;3.03;1.93;;;;;;;;;;4965989;28;20757;-55
2022/09/21 10:46:45;;;;;;;4.10;1.90;;;;;;;;;;4956569;28;20198;-55
2022/09/21 10:49:16;;;;;;;4.03;1.93;;;;;;;;;;4969910;28;20179;-54
2022/09/21 10:51:44;;;;;;;3.10;2.00;;;;;;;;;;4961637;28;20662;-54
2022/09/21 10:54:10;;;;;;;3.47;2.40;;;;;;;;;;4965706;28;20193;-54
2022/09/21 10:56:36;;;;;;;3.47;2.10;;;;;;;;;;4943227;28;20187;-54
2022/09/21 10:59:10;;;;;;;4.33;2.30;;;;;;;;;;4948903;28;20494;-54
2022/09/21 11:01:36;;;;;;;4.57;2.00;;;;;;;;;;4970546;28;20242;-54
2022/09/21 11:04:05;;;;;;;2.13;1.80;;;;;;;;;;4962781;28;20195;-54
2022/09/21 11:06:42;;;;;;;6.90;2.37;;;;;;;;;;4970792;28;20182;-52
2022/09/21 11:09:12;;;;;;;3.97;1.83;;;;;;;;;;4959053;28;20551;-54
2022/09/21 11:11:44;;;;;;;3.50;2.00;;;;;;;;;;4965463;28;20216;-54
2022/09/21 11:14:29;;;;;;;2.67;1.53;;;;;;;;;;4964129;28;20675;-54
2022/09/21 11:16:58;;;;;;;5.30;2.20;;;;;;;;;;4953499;28;20188;-54
2022/09/21 11:19:48;;;;;;;2.67;2.07;;;;;;;;;;4966678;28;20189;-54
2022/09/21 11:22:14;;;;;;;3.73;2.47;;;;;;;;;;4964805;28;20666;-52
2022/09/21 11:24:47;;;;;;;3.03;2.00;;;;;;;;;;4951938;28;20185;-52
2022/09/21 11:27:15;;;;;;;3.60;1.87;;;;;;;;;;4955563;28;20187;-52
2022/09/21 11:30:03;;;;;;;3.43;2.23;;;;;;;;;;4959787;28;20246;-52
2022/09/21 11:32:29;;;;;;;3.03;1.87;;;;;;;;;;4964739;28;20647;-52
2022/09/21 11:35:14;;;;;;;3.20;1.97;;;;;;;;;;4963586;28;20567;-52
2022/09/21 11:37:41;;;;;;;4.67;2.70;;;;;;;;;;4968459;28;20675;-53
2022/09/21 11:40:30;;;;;;;4.93;1.80;;;;;;;;;;4971223;28;20176;-53
2022/09/21 11:42:56;;;;;;;4.00;2.77;;;;;;;;;;4965696;28;20223;-53
2022/09/21 11:45:28;;;;;;;1.90;1.73;;;;;;;;;;4972043;28;20630;-53
2022/09/21 11:47:54;;;;;;;5.93;2.27;;;;;;;;;;4967249;28;20590;-53
2022/09/21 11:50:21;;;;;;;3.17;2.07;;;;;;;;;;4962995;28;20211;-53
2022/09/21 11:52:47;;;;;;;6.50;2.00;;;;;;;;;;4962899;28;20620;-53
2022/09/21 11:55:32;;;;;;;4.70;2.23;;;;;;;;;;4968308;28;20666;-53
2022/09/21 11:58:05;;;;;;;2.57;2.13;;;;;;;;;;4969348;28;20546;-53
2022/09/21 12:00:37;;;;;;;4.87;1.70;;;;;;;;;;4959401;28;20191;-53
2022/09/21 12:03:03;;;;;;;4.10;1.83;;;;;;;;;;4963670;28;20200;-53
2022/09/21 12:05:34;;;;;;;2.77;1.70;;;;;;;;;;4967259;28;20179;-53
2022/09/21 12:08:00;;;;;;;1.50;1.37;;;;;;;;;;4962436;28;20659;-53
2022/09/21 12:10:32;;;;;;;2.00;1.40;;;;;;;;;;4959766;28;20214;-53
2022/09/21 12:13:03;;;;;;;4.07;1.60;;;;;;;;;;4968617;28;20185;-53
2022/09/21 12:15:34;;;;;;;2.67;1.40;;;;;;;;;;4962923;28;20289;-53
2022/09/21 12:18:13;;;;;;;1.57;1.43;;;;;;;;;;4966003;28;20659;-53
2022/09/21 12:20:39;;;;;;;3.07;1.60;;;;;;;;;;4968998;28;20267;-53
2022/09/21 12:23:10;;;;;;;2.97;2.30;;;;;;;;;;4964787;28;20292;-53
2022/09/21 12:25:43;;;;;;;2.27;1.53;;;;;;;;;;4965262;28;20188;-53
2022/09/21 12:28:17;;;;;;;2.63;1.83;;;;;;;;;;4961814;28;20188;-53
2022/09/21 12:30:45;;;;;;;3.13;1.87;;;;;;;;;;4970263;28;20937;-53
2022/09/21 12:33:18;;;;;;;1.93;1.60;;;;;;;;;;4963509;28;20180;-53
2022/09/21 12:35:50;;;;;;;1.33;1.13;;;;;;;;;;4946874;28;20234;-53
2022/09/21 12:38:21;;;;;;;2.40;1.70;;;;;;;;;;4966225;28;20556;-53
2022/09/21 12:40:52;;;;;;;1.40;1.30;;;;;;;;;;4961687;28;20199;-53
2022/09/21 12:43:30;;;;;;;3.20;2.33;;;;;;;;;;4965442;28;20184;-53
2022/09/21 12:46:03;;;;;;;3.00;1.67;;;;;;;;;;4944349;28;20256;-53
2022/09/21 12:48:32;;;;;;;4.33;1.70;;;;;;;;;;4960993;28;20505;-53
2022/09/21 12:51:01;;;;;;;2.37;1.67;;;;;;;;;;4966674;28;20203;-53
2022/09/21 12:53:29;;;;;;;1.53;1.43;;;;;;;;;;4963065;28;20586;-53
2022/09/21 12:56:04;;;;;;;1.80;1.53;;;;;;;;;;4939698;28;20211;-53
2022/09/21 12:58:50;;;;;;;2.47;1.60;;;;;;;;;;4957312;28;20187;-54
2022/09/21 13:01:29;;;;;;;7.80;2.20;;;;;;;;;;4968259;28;20755;-53
2022/09/21 13:04:11;;;;;;;1.73;1.50;;;;;;;;;;4954947;28;20188;-53
2022/09/21 13:06:37;;;;;;;2.30;1.53;;;;;;;;;;4951232;28;20181;-53
2022/09/21 13:09:04;;;;;;;1.93;1.60;;;;;;;;;;4956807;28;20533;-53
2022/09/21 13:11:32;;;;;;;1.90;1.53;;;;;;;;;;4937954;28;20319;-53
2022/09/21 13:14:00;;;;;;;2.00;1.33;;;;;;;;;;4968051;28;20203;-53
2022/09/21 13:16:27;;;;;;;1.70;1.50;;;;;;;;;;4963491;28;20318;-54
2022/09/21 13:19:04;;;;;;;2.07;1.20;;;;;;;;;;4961032;28;20186;-53
2022/09/21 13:21:32;;;;;;;3.07;1.40;;;;;;;;;;4955228;28;20623;-53
2022/09/21 13:24:03;;;;;;;2.50;1.50;;;;;;;;;;4959878;28;20184;-54
2022/09/21 13:26:35;;;;;;;3.03;1.63;;;;;;;;;;4970657;28;20542;-53
2022/09/21 13:29:04;;;;;;;1.73;1.47;;;;;;;;;;4962927;28;20180;-53
2022/09/21 13:31:49;;;;;;;2.93;1.10;;;;;;;;;;4967559;28;20301;-53
2022/09/21 13:34:15;;;;;;;3.00;1.30;;;;;;;;;;4952184;28;20180;-53
2022/09/21 13:36:42;;;;;;;1.20;1.10;;;;;;;;;;4940489;28;20194;-53
2022/09/21 13:39:08;;;;;;;3.53;1.60;;;;;;;;;;4963127;28;20717;-53
2022/09/21 13:41:36;;;;;;;1.67;1.50;;;;;;;;;;4958378;28;20211;-53
2022/09/21 13:44:17;;;;;;;2.00;1.40;;;;;;;;;;4955158;28;20301;-53
2022/09/21 13:46:43;;;;;;;1.53;1.40;;;;;;;;;;4963535;28;20191;-53
2022/09/21 13:49:09;;;;;;;1.40;1.30;;;;;;;;;;4963013;28;20639;-53
2022/09/21 13:51:49;;;;;;;1.90;1.60;;;;;;;;;;4953051;28;20235;-53
2022/09/21 13:54:16;;;;;;;2.00;1.60;;;;;;;;;;4969222;28;20235;-54
2022/09/21 13:56:43;;;;;;;1.83;1.67;;;;;;;;;;4960281;28;20207;-53
2022/09/21 13:59:17;;;;;;;2.47;1.63;;;;;;;;;;4952840;28;20218;-53
2022/09/21 14:01:43;;;;;;;2.60;1.63;;;;;;;;;;4965629;28;20190;-53
2022/09/21 14:04:26;;;;;;;2.57;2.37;;;;;;;;;;4950126;28;20767;-53
2022/09/21 14:06:54;;;;;;;9.00;2.07;;;;;;;;;;4962036;28;20175;-53
2022/09/21 14:09:27;;;;;;;9.00;1.63;;;;;;;;;;4965552;28;20267;-53
2022/09/21 14:11:56;;;;;;;2.10;1.90;;;;;;;;;;4956637;28;20737;-53
2022/09/21 14:14:25;;;;;;;4.20;1.80;;;;;;;;;;4945353;28;20191;-54
2022/09/21 14:16:54;;;;;;;2.20;1.70;;;;;;;;;;4943151;28;20312;-54
2022/09/21 14:19:21;;;;;;;3.80;1.93;;;;;;;;;;4955665;28;20275;-54
2022/09/21 14:22:06;;;;;;;2.77;2.20;;;;;;;;;;4961265;28;20255;-54
2022/09/21 14:24:37;;;;;;;3.83;1.93;;;;;;;;;;4958407;28;20191;-54
2022/09/21 14:27:03;;;;;;;2.00;1.77;;;;;;;;;;4963941;28;20204;-53
2022/09/21 14:29:43;;;;;;;3.60;1.97;;;;;;;;;;4965092;28;20195;-53
2022/09/21 14:32:22;;;;;;;2.67;1.73;;;;;;;;;;4960105;28;20679;-53
2022/09/21 14:34:49;;;;;;;4.33;1.80;;;;;;;;;;4967194;28;20270;-52
2022/09/21 14:37:32;;;;;;;2.53;1.77;;;;;;;;;;4952075;28;20223;-53
2022/09/21 14:40:01;;;;;;;2.00;1.80;;;;;;;;;;4945893;28;20688;-53
2022/09/21 14:42:28;;;;;;;1.87;1.57;;;;;;;;;;4964977;28;20912;-53
2022/09/21 14:45:02;;;;;;;1.80;1.60;;;;;;;;;;4961720;28;20236;-52
2022/09/21 14:47:35;;;;;;;2.40;1.70;;;;;;;;;;4955125;28;20271;-53
2022/09/21 14:50:07;;;;;;;3.57;1.90;;;;;;;;;;4959832;28;20210;-53
2022/09/21 14:52:33;;;;;;;4.60;1.70;;;;;;;;;;4964541;28;20568;-53
2022/09/21 14:55:02;;;;;;;6.10;2.30;;;;;;;;;;4964001;28;20187;-53
2022/09/21 14:57:34;;;;;;;2.20;2.00;;;;;;;;;;4964887;28;20749;-52
2022/09/21 15:00:04;;;;;;;2.90;1.70;;;;;;;;;;4963689;28;20181;-52
2022/09/21 15:02:31;;;;;;;2.27;1.73;;;;;;;;;;4938202;28;20246;-52